Time;durP1;ratioP1;P1;durP2;ratioP2;P2;SDS_P1;SDS_P2;PMS_P1;PMS_P2;Temp;Humidity;BMP_temperature;BMP_pressure;BME280_temperature;BME280_humidity;BME280_pressure;Samples;Min_cycle;Max_cycle;Signal;HPM_P1;HPM_P2
2022/10/01 00:01:25;;;;;;;;;;;13.60;99.90;;;;;;4197244;28;19930;-62
2022/10/01 00:03:49;;;;;;;;;;;13.70;99.90;;;;;;4197859;28;19935;-62
2022/10/01 00:06:15;;;;;;;;;;;13.80;99.90;;;;;;4197437;28;19969;-62
2022/10/01 00:08:36;;;;;;;;;;;13.70;99.90;;;;;;4197690;28;19935;-62
2022/10/01 00:10:59;;;;;;;;;;;13.80;99.90;;;;;;4197011;28;19934;-62
2022/10/01 00:13:20;;;;;;;;;;;13.80;99.90;;;;;;4197402;28;19985;-62
2022/10/01 00:15:41;;;;;;;;;;;13.80;99.90;;;;;;4197371;28;19995;-62
2022/10/01 00:18:01;;;;;;;;;;;13.80;99.90;;;;;;4197707;28;20295;-62
2022/10/01 00:20:22;;;;;;;;;;;13.80;99.90;;;;;;4180590;28;20438;-62
2022/10/01 00:22:43;;;;;;;;;;;13.80;99.90;;;;;;4180930;28;19935;-62
2022/10/01 00:25:04;;;;;;;;;;;13.80;99.90;;;;;;4180722;28;19948;-62
2022/10/01 00:27:27;;;;;;;;;;;13.70;99.90;;;;;;4180729;28;20411;-62
2022/10/01 00:29:48;;;;;;;;;;;13.70;99.90;;;;;;4180796;28;19967;-62
2022/10/01 00:32:08;;;;;;;;;;;13.70;99.90;;;;;;4180573;28;20032;-62
2022/10/01 00:34:29;;;;;;;;;;;13.70;99.90;;;;;;4180811;28;19941;-62
2022/10/01 00:36:49;;;;;;;;;;;13.70;99.90;;;;;;4180489;28;20047;-62
2022/10/01 00:39:10;;;;;;;;;;;13.80;99.90;;;;;;4180680;28;19951;-62
2022/10/01 00:41:32;;;;;;;;;;;13.80;99.90;;;;;;4180046;28;20358;-62
2022/10/01 00:43:58;;;;;;;;;;;13.80;99.90;;;;;;4180533;28;20395;-62
2022/10/01 00:46:21;;;;;;;;;;;13.70;99.90;;;;;;4180026;28;20309;-62
2022/10/01 00:48:51;;;;;;;;;;;13.80;99.90;;;;;;4180311;28;19931;-62
2022/10/01 00:51:12;;;;;;;;;;;13.80;99.90;;;;;;4180177;28;19991;-62
2022/10/01 00:53:33;;;;;;;;;;;13.80;99.90;;;;;;4180411;28;20305;-62
2022/10/01 00:55:54;;;;;;;;;;;13.80;99.90;;;;;;4180161;28;19931;-62
2022/10/01 00:58:15;;;;;;;;;;;13.70;99.90;;;;;;4179552;28;19935;-62
2022/10/01 01:00:36;;;;;;;;;;;13.80;99.90;;;;;;4179673;28;19975;-62
2022/10/01 01:02:58;;;;;;;;;;;13.80;99.90;;;;;;4180276;28;20455;-62
2022/10/01 01:05:19;;;;;;;;;;;13.70;99.90;;;;;;4179512;28;19995;-62
2022/10/01 01:07:43;;;;;;;;;;;13.80;99.90;;;;;;4186277;28;19936;-62
2022/10/01 01:10:04;;;;;;;;;;;13.80;99.90;;;;;;4196537;28;19939;-62
2022/10/01 01:12:36;;;;;;;;;;;13.80;99.90;;;;;;4196797;28;19968;-62
2022/10/01 01:14:57;;;;;;;;;;;13.80;99.90;;;;;;4196174;28;19950;-62
2022/10/01 01:17:21;;;;;;;;;;;13.80;99.90;;;;;;4196477;28;19932;-62
2022/10/01 01:20:00;;;;;;;;;;;13.70;99.90;;;;;;4196362;28;19974;-62
2022/10/01 01:22:23;;;;;;;;;;;13.70;99.90;;;;;;4196165;28;19973;-62
2022/10/01 01:24:48;;;;;;;;;;;13.70;99.90;;;;;;4196106;28;20450;-62
2022/10/01 01:27:08;;;;;;;;;;;13.70;99.90;;;;;;4196166;28;19935;-62
2022/10/01 01:29:33;;;;;;;;;;;13.70;99.90;;;;;;4195107;28;19974;-62
2022/10/01 01:31:56;;;;;;;;;;;13.70;99.90;;;;;;4195938;28;19967;-62
2022/10/01 01:34:22;;;;;;;;;;;13.60;99.90;;;;;;4196162;28;19947;-62
2022/10/01 01:36:45;;;;;;;;;;;13.60;99.90;;;;;;4196004;28;19931;-62
2022/10/01 01:39:08;;;;;;;;;;;13.60;99.90;;;;;;4196215;28;20022;-62
2022/10/01 01:41:33;;;;;;;;;;;13.60;99.90;;;;;;4196109;28;19939;-62
2022/10/01 01:43:56;;;;;;;;;;;13.60;99.90;;;;;;4196107;28;19932;-62
2022/10/01 01:46:16;;;;;;;;;;;13.60;99.90;;;;;;4195880;28;20334;-62
2022/10/01 01:48:38;;;;;;;;;;;13.50;99.90;;;;;;4196207;28;19994;-62
2022/10/01 01:51:09;;;;;;;;;;;13.60;99.90;;;;;;4196162;28;19938;-62
2022/10/01 01:53:31;;;;;;;;;;;13.60;99.90;;;;;;4195958;28;19989;-62
2022/10/01 01:55:51;;;;;;;;;;;13.60;99.90;;;;;;4196255;28;19974;-62
2022/10/01 01:58:11;;;;;;;;;;;13.60;99.90;;;;;;4195925;28;19930;-62
2022/10/01 02:00:32;;;;;;;;;;;13.60;99.90;;;;;;4195860;28;20023;-62
2022/10/01 02:02:52;;;;;;;;;;;13.60;99.90;;;;;;4195718;28;19931;-62
2022/10/01 02:05:15;;;;;;;;;;;13.60;99.90;;;;;;4179460;28;19932;-62
2022/10/01 02:07:35;;;;;;;;;;;13.60;99.90;;;;;;4185436;28;19989;-62
2022/10/01 02:10:04;;;;;;;;;;;13.60;99.90;;;;;;4195646;28;20283;-62
2022/10/01 02:12:30;;;;;;;;;;;13.60;99.90;;;;;;4195936;28;19935;-62
2022/10/01 02:15:00;;;;;;;;;;;13.60;99.90;;;;;;4195866;28;20029;-62
2022/10/01 02:17:39;;;;;;;;;;;13.60;99.90;;;;;;4195489;28;19954;-62
2022/10/01 02:20:21;;;;;;;;;;;13.60;99.90;;;;;;4195399;28;19971;-62
2022/10/01 02:23:02;;;;;;;;;;;13.60;99.90;;;;;;4195644;28;19931;-62
2022/10/01 02:25:25;;;;;;;;;;;13.60;99.90;;;;;;4195646;28;19932;-62
2022/10/01 02:27:59;;;;;;;;;;;13.70;99.90;;;;;;4195489;28;19964;-62
2022/10/01 02:30:20;;;;;;;;;;;13.70;99.90;;;;;;4195707;28;20283;-62
2022/10/01 02:32:42;;;;;;;;;;;13.70;99.90;;;;;;4195740;28;19932;-62
2022/10/01 02:35:05;;;;;;;;;;;13.70;99.90;;;;;;4195430;28;19975;-62
2022/10/01 02:37:26;;;;;;;;;;;13.60;99.90;;;;;;4195372;28;20371;-62
2022/10/01 02:39:48;;;;;;;;;;;13.60;99.90;;;;;;4195250;28;19970;-62
2022/10/01 02:42:11;;;;;;;;;;;13.60;99.90;;;;;;4195747;28;20335;-62
2022/10/01 02:44:37;;;;;;;;;;;13.60;99.90;;;;;;4195704;28;19935;-62
2022/10/01 02:47:00;;;;;;;;;;;13.60;99.90;;;;;;4195449;28;19947;-62
2022/10/01 02:49:21;;;;;;;;;;;13.60;99.90;;;;;;4195257;28;20021;-62
2022/10/01 02:51:58;;;;;;;;;;;13.60;99.90;;;;;;4195342;28;20391;-62
2022/10/01 02:54:34;;;;;;;;;;;13.60;99.90;;;;;;4195437;28;19931;-62
2022/10/01 02:59:34;;;;;;;;;;;13.60;99.90;;;;;;4195067;28;20015;-62
2022/10/01 03:01:55;;;;;;;;;;;13.50;99.90;;;;;;4195120;28;19946;-62
2022/10/01 03:04:18;;;;;;;;;;;13.60;99.90;;;;;;4195360;28;19967;-62
2022/10/01 03:06:38;;;;;;;;;;;13.60;99.90;;;;;;4195504;28;19936;-62
2022/10/01 03:08:59;;;;;;;;;;;13.60;99.90;;;;;;4196187;28;20035;-62
2022/10/01 03:11:20;;;;;;;;;;;13.60;99.90;;;;;;4198297;28;20417;-62
2022/10/01 03:13:41;;;;;;;;;;;13.60;99.90;;;;;;4198596;28;19935;-62
2022/10/01 03:16:01;;;;;;;;;;;13.60;99.90;;;;;;4198413;28;19978;-62
2022/10/01 03:18:21;;;;;;;;;;;13.60;99.90;;;;;;4198259;28;20014;-62
2022/10/01 03:20:42;;;;;;;;;;;13.60;99.90;;;;;;4198585;28;19931;-62
2022/10/01 03:23:02;;;;;;;;;;;13.60;99.90;;;;;;4198512;28;19963;-62
2022/10/01 03:25:22;;;;;;;;;;;13.60;99.90;;;;;;4198131;28;19974;-62
2022/10/01 03:27:43;;;;;;;;;;;13.60;99.90;;;;;;4198461;28;19963;-62
2022/10/01 03:30:04;;;;;;;;;;;13.60;99.90;;;;;;4198576;28;19994;-62
2022/10/01 03:32:25;;;;;;;;;;;13.60;99.90;;;;;;4198156;28;19935;-62
2022/10/01 03:34:45;;;;;;;;;;;13.60;99.90;;;;;;4197974;28;20019;-62
2022/10/01 03:37:06;;;;;;;;;;;13.60;99.90;;;;;;4197780;28;19931;-62
2022/10/01 03:39:26;;;;;;;;;;;13.50;99.90;;;;;;4197689;28;20445;-62
2022/10/01 03:41:47;;;;;;;;;;;13.50;99.90;;;;;;4197958;28;19974;-62
2022/10/01 03:44:07;;;;;;;;;;;13.40;99.90;;;;;;4198097;28;19975;-62
2022/10/01 03:46:27;;;;;;;;;;;13.40;99.90;;;;;;4198049;28;20066;-62
2022/10/01 03:48:48;;;;;;;;;;;13.40;99.90;;;;;;4198165;28;19954;-62
2022/10/01 03:51:11;;;;;;;;;;;13.50;99.90;;;;;;4197761;28;20028;-62
2022/10/01 03:53:35;;;;;;;;;;;13.50;99.90;;;;;;4197818;28;19967;-62
2022/10/01 03:55:55;;;;;;;;;;;13.50;99.90;;;;;;4197511;28;19932;-62
2022/10/01 03:58:17;;;;;;;;;;;13.30;99.90;;;;;;4197864;28;20020;-62
2022/10/01 04:00:38;;;;;;;;;;;13.20;99.90;;;;;;4197468;28;19931;-62
2022/10/01 04:02:58;;;;;;;;;;;13.20;99.90;;;;;;4198089;28;19931;-62
2022/10/01 04:05:19;;;;;;;;;;;13.10;99.90;;;;;;4197947;28;20407;-62
2022/10/01 04:07:40;;;;;;;;;;;13.10;99.90;;;;;;4197763;28;20029;-62
2022/10/01 04:10:01;;;;;;;;;;;13.00;99.90;;;;;;4197189;28;20021;-62
2022/10/01 04:12:21;;;;;;;;;;;13.00;99.90;;;;;;4197713;28;20015;-62
2022/10/01 04:14:41;;;;;;;;;;;13.00;99.90;;;;;;4197787;28;19936;-62
2022/10/01 04:17:01;;;;;;;;;;;13.00;99.90;;;;;;4197453;28;20310;-62
2022/10/01 04:19:21;;;;;;;;;;;12.90;99.90;;;;;;4197295;28;20291;-62
2022/10/01 04:21:42;;;;;;;;;;;12.90;99.90;;;;;;4197125;28;19935;-62
2022/10/01 04:24:04;;;;;;;;;;;12.70;99.90;;;;;;4197812;28;19935;-62
2022/10/01 04:26:24;;;;;;;;;;;12.70;99.90;;;;;;4196898;28;19939;-62
2022/10/01 04:28:45;;;;;;;;;;;12.70;99.90;;;;;;4195870;28;20383;-62
2022/10/01 04:31:24;;;;;;;;;;;12.70;99.90;;;;;;4197361;28;19936;-62
2022/10/01 04:33:44;;;;;;;;;;;12.70;99.90;;;;;;4197318;28;20185;-62
2022/10/01 04:36:05;;;;;;;;;;;12.80;99.90;;;;;;4197280;28;20176;-62
2022/10/01 04:38:25;;;;;;;;;;;12.80;99.90;;;;;;4197318;28;19935;-62
2022/10/01 04:40:47;;;;;;;;;;;12.80;99.90;;;;;;4197167;28;19930;-62
2022/10/01 04:43:08;;;;;;;;;;;12.70;99.90;;;;;;4197181;28;19952;-62
2022/10/01 04:45:28;;;;;;;;;;;12.60;99.90;;;;;;4196882;28;19975;-62
2022/10/01 04:47:50;;;;;;;;;;;12.50;99.90;;;;;;4197002;28;19935;-62
2022/10/01 04:50:10;;;;;;;;;;;12.50;99.90;;;;;;4196725;28;19936;-62
2022/10/01 04:52:30;;;;;;;;;;;12.60;99.90;;;;;;4195849;28;19981;-62
2022/10/01 04:54:51;;;;;;;;;;;12.50;99.90;;;;;;4196900;28;20055;-62
2022/10/01 04:57:11;;;;;;;;;;;12.40;99.90;;;;;;4196809;28;19936;-62
2022/10/01 04:59:32;;;;;;;;;;;12.40;99.90;;;;;;4197008;28;20398;-62
2022/10/01 05:01:52;;;;;;;;;;;12.40;99.90;;;;;;4196903;28;19930;-62
2022/10/01 05:04:13;;;;;;;;;;;12.30;99.90;;;;;;4196730;28;19982;-62
2022/10/01 05:06:33;;;;;;;;;;;12.30;99.90;;;;;;4196934;28;19947;-62
2022/10/01 05:08:53;;;;;;;;;;;12.40;99.90;;;;;;4180290;28;19940;-62
2022/10/01 05:11:14;;;;;;;;;;;12.40;99.90;;;;;;4179890;28;19931;-62
2022/10/01 05:13:34;;;;;;;;;;;12.30;99.90;;;;;;4180318;28;19955;-62
2022/10/01 05:15:54;;;;;;;;;;;12.30;99.90;;;;;;4180068;28;20653;-62
2022/10/01 05:18:15;;;;;;;;;;;12.20;99.90;;;;;;4179860;28;19932;-62
2022/10/01 05:20:36;;;;;;;;;;;12.20;99.90;;;;;;4179462;28;19943;-58
2022/10/01 05:22:57;;;;;;;;;;;12.10;99.90;;;;;;4179382;28;19998;-58
2022/10/01 05:25:18;;;;;;;;;;;12.10;99.90;;;;;;4178622;28;19935;-58
2022/10/01 05:27:39;;;;;;;;;;;12.10;99.90;;;;;;4179745;28;19978;-59
2022/10/01 05:30:00;;;;;;;;;;;12.00;99.90;;;;;;4179292;28;20358;-59
2022/10/01 05:32:21;;;;;;;;;;;11.90;99.90;;;;;;4178916;28;20003;-58
2022/10/01 05:34:41;;;;;;;;;;;11.90;99.90;;;;;;4179443;28;20410;-59
2022/10/01 05:37:02;;;;;;;;;;;11.80;99.90;;;;;;4179370;28;19975;-58
2022/10/01 05:39:22;;;;;;;;;;;11.70;99.90;;;;;;4179374;28;19935;-58
2022/10/01 05:41:42;;;;;;;;;;;11.70;99.90;;;;;;4179223;28;20304;-58
2022/10/01 05:44:03;;;;;;;;;;;11.70;99.90;;;;;;4179559;28;20296;-58
2022/10/01 05:46:23;;;;;;;;;;;11.80;99.90;;;;;;4181268;28;19978;-59
2022/10/01 05:48:44;;;;;;;;;;;11.80;99.90;;;;;;4193267;28;20307;-58
2022/10/01 05:51:05;;;;;;;;;;;11.80;99.90;;;;;;4193016;28;19951;-58
2022/10/01 05:53:26;;;;;;;;;;;11.80;99.90;;;;;;4195264;28;19982;-58
2022/10/01 05:55:46;;;;;;;;;;;11.70;99.90;;;;;;4193660;28;20438;-59
2022/10/01 05:58:09;;;;;;;;;;;11.80;99.90;;;;;;4192323;28;20021;-59
2022/10/01 06:00:30;;;;;;;;;;;11.70;99.90;;;;;;4195586;28;19955;-58
2022/10/01 06:02:51;;;;;;;;;;;11.70;99.90;;;;;;4189427;28;19963;-58
2022/10/01 06:05:11;;;;;;;;;;;11.70;99.90;;;;;;4192964;28;19934;-59
2022/10/01 06:07:31;;;;;;;;;;;11.70;99.90;;;;;;4189637;28;20295;-58
2022/10/01 06:09:52;;;;;;;;;;;11.70;99.90;;;;;;4186403;28;20411;-58
2022/10/01 06:12:12;;;;;;;;;;;11.70;99.90;;;;;;4193321;28;19936;-58
2022/10/01 06:14:36;;;;;;;;;;;11.80;99.90;;;;;;4191319;28;19931;-58
2022/10/01 06:16:57;;;;;;;;;;;11.70;99.90;;;;;;4195366;28;19982;-59
2022/10/01 06:19:17;;;;;;;;;;;11.70;99.90;;;;;;4191739;28;19936;-58
2022/10/01 06:21:37;;;;;;;;;;;11.80;99.90;;;;;;4186594;28;20058;-58
2022/10/01 06:23:58;;;;;;;;;;;11.90;99.90;;;;;;4192951;28;19931;-58
2022/10/01 06:26:18;;;;;;;;;;;12.00;99.90;;;;;;4195077;28;19935;-58
2022/10/01 06:28:38;;;;;;;;;;;12.10;99.90;;;;;;4195585;28;19935;-59
2022/10/01 06:31:02;;;;;;;;;;;12.20;99.90;;;;;;4195580;28;20451;-58
2022/10/01 06:33:22;;;;;;;;;;;12.10;99.90;;;;;;4195631;28;20056;-60
2022/10/01 06:35:49;;;;;;;;;;;12.10;99.90;;;;;;4193866;28;20395;-61
2022/10/01 06:38:10;;;;;;;;;;;12.00;99.90;;;;;;4191181;28;20008;-61
2022/10/01 06:40:31;;;;;;;;;;;12.00;99.90;;;;;;4196297;28;19985;-61
2022/10/01 06:42:51;;;;;;;;;;;12.10;99.90;;;;;;4196513;28;19975;-61
2022/10/01 06:45:16;;;;;;;;;;;12.10;99.90;;;;;;4198556;28;20041;-61
2022/10/01 06:47:37;;;;;;;;;;;12.20;99.90;;;;;;4185628;28;19972;-61
2022/10/01 06:49:58;;;;;;;;;;;12.20;99.90;;;;;;4193660;28;19981;-61
2022/10/01 06:54:58;;;;;;;;;;;12.20;99.90;;;;;;4188943;28;19978;-61
2022/10/01 06:57:19;;;;;;;;;;;12.20;99.90;;;;;;4191318;28;19966;-60
2022/10/01 06:59:39;;;;;;;;;;;12.30;99.90;;;;;;4196387;28;19974;-61
2022/10/01 07:01:59;;;;;;;;;;;12.30;99.90;;;;;;4192864;28;20036;-61
2022/10/01 07:04:20;;;;;;;;;;;12.30;99.90;;;;;;4198485;28;19932;-61
2022/10/01 07:06:40;;;;;;;;;;;12.40;99.90;;;;;;4198852;28;19998;-61
2022/10/01 07:09:00;;;;;;;;;;;12.50;99.90;;;;;;4182040;28;19935;-61
2022/10/01 07:11:20;;;;;;;;;;;12.50;99.90;;;;;;4181623;28;19975;-61
2022/10/01 07:13:40;;;;;;;;;;;12.60;99.90;;;;;;4181738;28;19936;-61
2022/10/01 07:16:04;;;;;;;;;;;12.70;99.90;;;;;;4181464;28;19935;-59
2022/10/01 07:18:24;;;;;;;;;;;12.70;99.90;;;;;;4182116;28;19932;-58
2022/10/01 07:20:45;;;;;;;;;;;12.70;99.90;;;;;;4184250;28;19979;-58
2022/10/01 07:23:06;;;;;;;;;;;12.70;99.90;;;;;;4194992;28;19983;-58
2022/10/01 07:25:27;;;;;;;;;;;12.80;99.90;;;;;;4196967;28;19946;-58
2022/10/01 07:27:47;;;;;;;;;;;12.90;99.90;;;;;;4198457;28;20012;-58
2022/10/01 07:30:07;;;;;;;;;;;12.90;99.90;;;;;;4194737;28;19930;-59
2022/10/01 07:32:30;;;;;;;;;;;13.00;99.90;;;;;;4191715;28;20021;-59
2022/10/01 07:34:50;;;;;;;;;;;13.10;99.90;;;;;;4198094;28;19954;-59
2022/10/01 07:37:11;;;;;;;;;;;13.10;99.90;;;;;;4198035;28;19931;-58
2022/10/01 07:39:31;;;;;;;;;;;13.30;99.90;;;;;;4197990;28;20394;-58
2022/10/01 07:41:52;;;;;;;;;;;13.10;99.90;;;;;;4197706;28;19930;-58
2022/10/01 07:44:12;;;;;;;;;;;13.10;99.90;;;;;;4197966;28;19935;-58
2022/10/01 07:46:33;;;;;;;;;;;13.20;99.90;;;;;;4197383;28;20378;-58
2022/10/01 07:48:54;;;;;;;;;;;13.10;99.90;;;;;;4198079;28;20337;-58
2022/10/01 07:51:14;;;;;;;;;;;12.90;99.90;;;;;;4197576;28;19986;-58
2022/10/01 07:53:34;;;;;;;;;;;13.00;99.90;;;;;;4197841;28;19936;-59
2022/10/01 07:55:54;;;;;;;;;;;13.20;99.90;;;;;;4197243;28;19947;-59
2022/10/01 07:58:14;;;;;;;;;;;13.30;99.90;;;;;;4198006;28;19964;-58
2022/10/01 08:00:34;;;;;;;;;;;13.30;99.90;;;;;;4196246;28;19936;-59
2022/10/01 08:02:55;;;;;;;;;;;13.30;99.90;;;;;;4197590;28;19931;-58
2022/10/01 08:05:16;;;;;;;;;;;13.40;99.90;;;;;;4197600;28;19931;-58
2022/10/01 08:07:36;;;;;;;;;;;13.50;99.90;;;;;;4201414;28;19931;-58
2022/10/01 08:09:57;;;;;;;;;;;13.70;99.90;;;;;;4183738;28;19971;-58
2022/10/01 08:12:18;;;;;;;;;;;13.50;99.90;;;;;;4190959;28;19932;-58
2022/10/01 08:14:38;;;;;;;;;;;13.30;99.90;;;;;;4190837;28;20066;-58
2022/10/01 08:16:58;;;;;;;;;;;13.70;99.90;;;;;;4193644;28;19978;-58
2022/10/01 08:19:19;;;;;;;;;;;13.70;99.90;;;;;;4195407;28;20280;-60
2022/10/01 08:21:40;;;;;;;;;;;13.80;99.90;;;;;;4194459;28;20015;-60
2022/10/01 08:24:04;;;;;;;;;;;14.10;99.90;;;;;;4192186;28;20517;-60
2022/10/01 08:26:25;;;;;;;;;;;14.40;99.90;;;;;;4190454;28;19936;-60
2022/10/01 08:28:45;;;;;;;;;;;14.50;99.90;;;;;;4190911;28;19935;-60
2022/10/01 08:31:06;;;;;;;;;;;14.60;99.90;;;;;;4187692;28;20032;-61
2022/10/01 08:33:26;;;;;;;;;;;14.50;99.90;;;;;;4184468;28;20339;-61
2022/10/01 08:35:46;;;;;;;;;;;14.40;99.90;;;;;;4188617;28;20422;-61
2022/10/01 08:38:08;;;;;;;;;;;14.40;99.90;;;;;;4182671;28;20002;-61
2022/10/01 08:40:29;;;;;;;;;;;14.60;99.90;;;;;;4184298;28;19975;-61
2022/10/01 08:42:55;;;;;;;;;;;14.90;99.90;;;;;;4187456;28;19975;-60
2022/10/01 08:45:19;;;;;;;;;;;14.90;99.90;;;;;;4189413;28;20696;-61
2022/10/01 08:47:42;;;;;;;;;;;14.90;99.90;;;;;;4187670;28;19974;-60
2022/10/01 08:50:11;;;;;;;;;;;14.90;99.90;;;;;;4190936;28;19936;-61
2022/10/01 08:52:35;;;;;;;;;;;15.00;99.90;;;;;;4187160;28;20898;-61
2022/10/01 08:55:02;;;;;;;;;;;15.20;99.90;;;;;;4203940;28;19935;-60
2022/10/01 08:57:51;;;;;;;;;;;15.30;99.90;;;;;;4199061;28;20002;-60
2022/10/01 09:00:13;;;;;;;;;;;15.30;99.90;;;;;;4142663;28;20297;-60
2022/10/01 09:02:43;;;;;;;;;;;15.40;99.90;;;;;;4154074;28;19937;-60
2022/10/01 09:05:05;;;;;;;;;;;15.70;99.90;;;;;;4160118;28;19940;-60
2022/10/01 09:07:28;;;;;;;;;;;15.70;99.90;;;;;;4148964;28;19939;-61
2022/10/01 09:09:55;;;;;;;;;;;15.90;99.90;;;;;;4177216;28;20014;-60
2022/10/01 09:12:27;;;;;;;;;;;16.10;99.90;;;;;;4158050;28;20148;-61
2022/10/01 09:15:04;;;;;;;;;;;16.30;99.90;;;;;;4150139;28;19932;-60
2022/10/01 09:17:29;;;;;;;;;;;16.50;99.90;;;;;;4151888;28;19936;-61
2022/10/01 09:20:07;;;;;;;;;;;16.60;99.90;;;;;;4160242;28;19936;-61
2022/10/01 09:22:41;;;;;;;;;;;16.50;99.90;;;;;;4160070;28;19932;-60
2022/10/01 09:25:08;;;;;;;;;;;16.60;99.90;;;;;;4156895;28;19935;-60
2022/10/01 09:27:28;;;;;;;;;;;16.80;99.90;;;;;;4155534;28;20016;-59
2022/10/01 09:29:54;;;;;;;;;;;16.90;99.90;;;;;;4158053;28;19936;-59
2022/10/01 09:32:17;;;;;;;;;;;17.00;99.90;;;;;;4158481;28;19935;-59
2022/10/01 09:34:39;;;;;;;;;;;17.00;99.90;;;;;;4154130;28;19933;-59
2022/10/01 09:37:13;;;;;;;;;;;17.00;99.90;;;;;;4153657;28;19976;-56
2022/10/01 09:39:40;;;;;;;;;;;17.30;99.90;;;;;;4154953;28;19940;-57
2022/10/01 09:42:01;;;;;;;;;;;17.20;99.90;;;;;;4156533;28;19935;-56
2022/10/01 09:44:25;;;;;;;;;;;17.50;99.90;;;;;;4159562;28;19936;-56
2022/10/01 09:46:45;;;;;;;;;;;17.80;99.90;;;;;;4150780;28;19999;-56
2022/10/01 09:49:13;;;;;;;;;;;17.80;99.90;;;;;;4147142;28;19936;-55
2022/10/01 09:51:39;;;;;;;;;;;17.90;99.90;;;;;;4151597;28;20000;-56
2022/10/01 09:54:06;;;;;;;;;;;18.10;99.90;;;;;;4150574;28;19956;-56
2022/10/01 09:56:32;;;;;;;;;;;17.90;99.90;;;;;;4148465;28;20029;-56
2022/10/01 09:58:58;;;;;;;;;;;18.10;99.90;;;;;;4152546;28;20024;-56
2022/10/01 10:01:25;;;;;;;;;;;18.00;99.90;;;;;;4152120;28;19935;-56
2022/10/01 10:03:53;;;;;;;;;;;18.40;99.90;;;;;;4152393;28;19933;-57
2022/10/01 10:06:14;;;;;;;;;;;18.20;99.90;;;;;;4158565;28;20316;-56
2022/10/01 10:08:39;;;;;;;;;;;18.70;99.90;;;;;;4155119;28;19944;-55
2022/10/01 10:11:00;;;;;;;;;;;18.50;99.90;;;;;;4148773;28;19972;-55
2022/10/01 10:13:30;;;;;;;;;;;18.60;99.90;;;;;;4149707;28;19935;-56
2022/10/01 10:15:56;;;;;;;;;;;18.60;99.90;;;;;;4160623;28;19932;-55
2022/10/01 10:18:21;;;;;;;;;;;19.00;99.90;;;;;;4162372;28;19936;-56
2022/10/01 10:20:43;;;;;;;;;;;18.60;99.90;;;;;;4160037;28;19936;-56
2022/10/01 10:23:14;;;;;;;;;;;18.40;99.90;;;;;;4162294;28;20313;-56
2022/10/01 10:25:34;;;;;;;;;;;18.60;99.90;;;;;;4161476;28;19936;-56
2022/10/01 10:27:55;;;;;;;;;;;18.70;99.90;;;;;;4190022;28;20574;-56
2022/10/01 10:30:17;;;;;;;;;;;18.80;99.90;;;;;;4185528;28;21346;-56
2022/10/01 10:32:38;;;;;;;;;;;18.90;99.90;;;;;;4203668;28;19942;-55
2022/10/01 10:35:03;;;;;;;;;;;19.10;99.90;;;;;;4195388;28;19987;-55
2022/10/01 10:37:29;;;;;;;;;;;18.90;99.90;;;;;;4191318;28;20047;-56
2022/10/01 10:39:50;;;;;;;;;;;19.20;99.90;;;;;;4185651;28;20010;-56
2022/10/01 10:42:13;;;;;;;;;;;19.60;99.90;;;;;;4186626;28;20303;-57
2022/10/01 10:44:38;;;;;;;;;;;19.50;99.90;;;;;;4185072;28;19934;-56
2022/10/01 10:46:59;;;;;;;;;;;19.50;99.90;;;;;;4179808;28;20028;-56
2022/10/01 10:49:28;;;;;;;;;;;19.50;99.90;;;;;;4188601;28;19981;-57
2022/10/01 10:51:52;;;;;;;;;;;19.40;99.90;;;;;;4188825;28;20455;-56
2022/10/01 10:54:17;;;;;;;;;;;19.60;99.90;;;;;;4193532;28;19967;-56
2022/10/01 10:56:37;;;;;;;;;;;19.60;99.90;;;;;;4194051;28;19931;-57
2022/10/01 10:59:05;;;;;;;;;;;20.10;99.90;;;;;;4188959;28;20530;-58
2022/10/01 11:01:28;;;;;;;;;;;20.40;99.90;;;;;;4194203;28;19936;-56
2022/10/01 11:03:52;;;;;;;;;;;20.30;99.90;;;;;;4193773;28;19939;-57
2022/10/01 11:06:13;;;;;;;;;;;20.70;99.90;;;;;;4181909;28;20287;-57
2022/10/01 11:08:34;;;;;;;;;;;20.40;99.90;;;;;;4187063;28;20414;-57
2022/10/01 11:11:04;;;;;;;;;;;19.80;99.90;;;;;;4183962;28;19931;-57
2022/10/01 11:13:42;;;;;;;;;;;20.30;99.90;;;;;;4184305;28;19939;-57
2022/10/01 11:16:06;;;;;;;;;;;20.60;99.90;;;;;;4190047;28;20407;-57
2022/10/01 11:18:40;;;;;;;;;;;21.00;99.90;;;;;;4182681;28;20415;-57
2022/10/01 11:21:19;;;;;;;;;;;21.20;99.90;;;;;;4192648;28;20154;-57
2022/10/01 11:23:57;;;;;;;;;;;21.50;99.90;;;;;;4193730;28;19931;-58
2022/10/01 11:26:33;;;;;;;;;;;21.70;99.90;;;;;;4194562;28;19947;-57
2022/10/01 11:29:02;;;;;;;;;;;20.90;99.90;;;;;;4195304;28;20145;-57
2022/10/01 11:31:46;;;;;;;;;;;20.70;99.90;;;;;;4197755;28;19935;-57
2022/10/01 11:34:19;;;;;;;;;;;20.90;99.90;;;;;;4196026;28;19935;-56
2022/10/01 11:36:47;;;;;;;;;;;21.40;99.90;;;;;;4186141;28;19932;-57
2022/10/01 11:39:15;;;;;;;;;;;21.50;99.90;;;;;;4197743;28;20012;-56
2022/10/01 11:41:42;;;;;;;;;;;21.40;99.90;;;;;;4197724;28;19935;-57
2022/10/01 11:44:05;;;;;;;;;;;21.30;99.90;;;;;;4198040;28;19977;-56
2022/10/01 11:46:47;;;;;;;;;;;21.00;99.90;;;;;;4197658;28;19935;-57
2022/10/01 11:49:17;;;;;;;;;;;20.70;99.90;;;;;;4190311;28;20469;-56
2022/10/01 11:51:40;;;;;;;;;;;20.80;99.90;;;;;;4197911;28;20363;-56
2022/10/01 11:54:05;;;;;;;;;;;20.60;99.90;;;;;;4196018;28;19931;-56
2022/10/01 11:59:12;;;;;;;;;;;20.10;99.90;;;;;;4181464;28;19936;-55
2022/10/01 12:01:32;;;;;;;;;;;20.00;99.90;;;;;;4180695;28;19955;-56
2022/10/01 12:03:52;;;;;;;;;;;19.90;99.90;;;;;;4187005;28;20012;-56
2022/10/01 12:06:13;;;;;;;;;;;19.70;99.90;;;;;;4197239;28;19986;-56
2022/10/01 12:08:36;;;;;;;;;;;19.70;99.90;;;;;;4197374;28;20405;-56
2022/10/01 12:11:04;;;;;;;;;;;19.80;99.90;;;;;;4196775;28;19939;-57
2022/10/01 12:13:37;;;;;;;;;;;19.70;99.90;;;;;;4188174;28;19936;-56
2022/10/01 12:16:03;;;;;;;;;;;19.60;99.90;;;;;;4187057;28;19932;-56
2022/10/01 12:18:29;;;;;;;;;;;19.70;99.90;;;;;;4194278;28;19943;-56
2022/10/01 12:20:51;;;;;;;;;;;19.90;99.90;;;;;;4180719;28;19935;-56
2022/10/01 12:23:27;;;;;;;;;;;19.80;99.90;;;;;;4191334;28;19931;-56
2022/10/01 12:25:57;;;;;;;;;;;19.70;99.90;;;;;;4197151;28;20015;-56
2022/10/01 12:28:20;;;;;;;;;;;19.50;99.90;;;;;;4194070;28;19935;-55
2022/10/01 12:30:59;;;;;;;;;;;19.40;99.90;;;;;;4196864;28;20360;-56
2022/10/01 12:33:24;;;;;;;;;;;19.60;99.90;;;;;;4196913;28;20051;-56
2022/10/01 12:36:17;;;;;;;;;;;19.50;99.90;;;;;;4180029;28;19978;-57
2022/10/01 12:38:49;;;;;;;;;;;19.70;99.90;;;;;;4161516;28;20328;-58
2022/10/01 12:41:37;;;;;;;;;;;19.90;99.90;;;;;;4161216;28;20399;-58
2022/10/01 12:43:57;;;;;;;;;;;20.20;99.90;;;;;;4161624;28;19936;-58
2022/10/01 12:46:20;;;;;;;;;;;20.40;99.90;;;;;;4161388;28;20015;-58
2022/10/01 12:48:46;;;;;;;;;;;20.50;99.90;;;;;;4174486;28;19975;-58
2022/10/01 12:51:30;;;;;;;;;;;20.60;99.90;;;;;;4178089;28;19955;-58
2022/10/01 12:53:50;;;;;;;;;;;20.60;99.90;;;;;;4176145;28;19935;-58
2022/10/01 12:56:29;;;;;;;;;;;20.60;99.90;;;;;;4171863;28;20002;-57
2022/10/01 12:58:59;;;;;;;;;;;20.80;99.90;;;;;;4173391;28;20029;-58
2022/10/01 13:01:19;;;;;;;;;;;20.80;99.90;;;;;;4176850;28;19936;-58
2022/10/01 13:03:55;;;;;;;;;;;20.90;99.90;;;;;;4177353;28;20022;-58
2022/10/01 13:06:23;;;;;;;;;;;20.60;99.90;;;;;;4177349;28;20403;-58
2022/10/01 13:08:58;;;;;;;;;;;20.50;99.90;;;;;;4171339;28;19935;-58
2022/10/01 13:11:19;;;;;;;;;;;20.40;99.90;;;;;;4169324;28;20890;-59
2022/10/01 13:13:40;;;;;;;;;;;20.70;99.90;;;;;;4171577;28;19986;-59
2022/10/01 13:16:28;;;;;;;;;;;20.90;99.90;;;;;;4186643;28;19932;-59
2022/10/01 13:18:56;;;;;;;;;;;20.90;99.90;;;;;;4190485;28;19939;-59
2022/10/01 13:21:35;;;;;;;;;;;21.00;99.90;;;;;;4196636;28;19998;-59
2022/10/01 13:24:16;;;;;;;;;;;21.10;99.90;;;;;;4186929;28;20306;-59
2022/10/01 13:26:45;;;;;;;;;;;21.40;99.90;;;;;;4187631;28;19963;-59
2022/10/01 13:29:14;;;;;;;;;;;21.40;99.90;;;;;;4192395;28;19947;-59
2022/10/01 13:31:39;;;;;;;;;;;20.90;99.90;;;;;;4184678;28;20816;-59
2022/10/01 13:34:00;;;;;;;;;;;20.20;99.90;;;;;;4202859;28;19931;-59
2022/10/01 13:36:28;;;;;;;;;;;20.30;99.90;;;;;;4199120;28;19935;-58
2022/10/01 13:38:48;;;;;;;;;;;20.50;99.90;;;;;;4199336;28;19935;-60
2022/10/01 13:41:22;;;;;;;;;;;20.60;99.90;;;;;;4185340;28;19936;-59
2022/10/01 13:43:48;;;;;;;;;;;20.40;99.90;;;;;;4190886;28;19936;-59
2022/10/01 13:46:09;;;;;;;;;;;19.90;99.90;;;;;;4192237;28;20473;-59
2022/10/01 13:48:33;;;;;;;;;;;19.60;99.90;;;;;;4194360;28;20296;-59
2022/10/01 13:50:55;;;;;;;;;;;19.50;99.90;;;;;;4197517;28;19932;-59
2022/10/01 13:53:16;;;;;;;;;;;19.40;99.90;;;;;;4194655;28;19939;-60
2022/10/01 13:55:39;;;;;;;;;;;19.30;99.90;;;;;;4193026;28;20449;-59
2022/10/01 13:58:01;;;;;;;;;;;19.50;99.90;;;;;;4194998;28;19974;-59
2022/10/01 14:00:22;;;;;;;;;;;19.70;99.90;;;;;;4202248;28;20395;-59
2022/10/01 14:02:44;;;;;;;;;;;20.00;99.90;;;;;;4183525;28;19951;-59
2022/10/01 14:05:16;;;;;;;;;;;20.40;99.90;;;;;;4197754;28;19998;-59